Time;durP1;ratioP1;P1;durP2;ratioP2;P2;SDS_P1;SDS_P2;PMS_P1;PMS_P2;Temp;Humidity;BMP_temperature;BMP_pressure;BME280_temperature;BME280_humidity;BME280_pressure;Samples;Min_cycle;Max_cycle;Signal;HPM_P1;HPM_P2
2024/02/17 00:01:40;;;;;;;19.95;17.85;;;11.40;99.90;;;12.01;100.00;98557.56;10302298;28;20835;-66
2024/02/17 00:06:43;;;;;;;22.58;20.15;;;11.40;99.90;;;11.99;100.00;98562.59;10299459;28;20238;-66
2024/02/17 00:11:47;;;;;;;19.77;17.77;;;11.40;99.90;;;12.00;100.00;98561.78;10303238;28;20723;-66
2024/02/17 00:16:51;;;;;;;22.20;19.90;;;11.40;99.90;;;11.96;100.00;98557.28;10301620;28;20233;-66
2024/02/17 00:21:54;;;;;;;22.67;20.40;;;11.40;99.90;;;12.01;100.00;98570.38;10306782;28;20888;-66
2024/02/17 00:26:58;;;;;;;23.45;21.05;;;11.40;99.90;;;11.97;100.00;98566.72;10306166;28;20229;-66
2024/02/17 00:32:01;;;;;;;23.77;21.13;;;11.40;99.90;;;12.00;100.00;98566.91;10308936;28;20238;-66
2024/02/17 00:37:05;;;;;;;22.63;20.15;;;11.40;99.90;;;12.02;100.00;98573.03;10310582;28;20233;-66
2024/02/17 00:42:09;;;;;;;23.77;21.27;;;11.40;99.90;;;12.01;100.00;98586.63;10307279;28;20219;-67
2024/02/17 00:47:12;;;;;;;20.70;18.65;;;11.40;99.90;;;12.01;100.00;98586.63;10306135;28;20262;-66
2024/02/17 00:52:16;;;;;;;20.20;18.10;;;11.40;99.90;;;12.02;100.00;98587.50;10303721;28;20226;-66
2024/02/17 00:57:20;;;;;;;22.38;20.00;;;11.40;99.90;;;11.97;100.00;98589.78;10305882;28;20782;-66
2024/02/17 01:02:29;;;;;;;22.95;20.60;;;11.30;99.90;;;11.98;100.00;98600.91;10311699;28;20281;-68
2024/02/17 01:07:32;;;;;;;22.15;19.85;;;11.30;99.90;;;11.95;100.00;98596.47;10308473;28;20231;-64
2024/02/17 01:12:37;;;;;;;22.92;20.48;;;11.30;99.90;;;12.00;100.00;98605.34;10307022;28;20241;-65
2024/02/17 01:17:41;;;;;;;22.67;20.33;;;11.40;99.90;;;11.95;100.00;98601.59;10304618;28;20235;-65
2024/02/17 01:22:44;;;;;;;26.17;23.35;;;11.40;99.90;;;11.97;100.00;98609.41;10307391;28;20223;-65
2024/02/17 01:27:49;;;;;;;27.55;24.25;;;11.30;99.90;;;11.94;100.00;98610.09;10302300;28;20238;-64
2024/02/17 01:32:52;;;;;;;25.92;23.13;;;11.30;99.90;;;11.95;100.00;98612.72;10308357;28;20215;-68
2024/02/17 01:37:55;;;;;;;22.05;19.85;;;11.30;99.90;;;11.98;100.00;98621.41;10305581;28;20240;-64
2024/02/17 01:43:00;;;;;;;21.95;19.60;;;11.40;99.90;;;11.94;100.00;98622.91;10302788;28;20723;-65
2024/02/17 01:48:04;;;;;;;20.10;18.00;;;11.40;99.90;;;11.93;100.00;98624.59;10301491;28;20230;-65
2024/02/17 01:53:08;;;;;;;20.60;18.50;;;11.40;99.90;;;11.96;100.00;98631.59;10304044;28;20715;-65
2024/02/17 01:58:13;;;;;;;17.17;15.38;;;11.40;99.90;;;11.94;100.00;98626.34;10303060;28;20230;-66
2024/02/17 02:03:17;;;;;;;19.90;17.80;;;11.40;99.90;;;11.89;100.00;98629.41;10305689;28;20234;-64
2024/02/17 02:08:20;;;;;;;20.23;18.17;;;11.30;99.90;;;11.96;100.00;98634.13;10303038;28;20737;-65
2024/02/17 02:13:25;;;;;;;19.67;17.60;;;11.30;99.90;;;11.93;100.00;98634.84;10302595;28;20726;-65
2024/02/17 02:18:28;;;;;;;19.08;17.00;;;11.30;99.90;;;11.86;100.00;98632.66;10303327;28;20238;-67
2024/02/17 02:23:32;;;;;;;16.95;15.15;;;11.30;99.90;;;11.91;100.00;98633.84;10304293;28;20249;-65
2024/02/17 02:28:36;;;;;;;16.98;15.18;;;11.30;99.90;;;11.85;100.00;98647.91;10302661;28;20250;-68
2024/02/17 02:33:39;;;;;;;17.67;15.35;;;11.30;99.90;;;11.87;100.00;98648.91;10306431;28;20238;-64
2024/02/17 02:38:42;;;;;;;15.30;13.70;;;11.30;99.90;;;11.90;100.00;98649.09;10304427;28;20238;-68
2024/02/17 02:43:48;;;;;;;17.23;15.45;;;11.30;99.90;;;11.89;100.00;98655.00;10303949;28;20223;-65
2024/02/17 02:48:51;;;;;;;15.70;14.15;;;11.30;99.90;;;11.88;100.00;98653.25;10302814;28;20899;-66
2024/02/17 02:53:54;;;;;;;13.63;11.82;;;11.30;99.90;;;11.91;100.00;98663.69;10301587;28;20377;-64
2024/02/17 02:58:59;;;;;;;14.80;13.23;;;11.30;99.90;;;11.93;100.00;98664.66;10303381;28;20235;-69
2024/02/17 03:04:02;;;;;;;14.70;13.13;;;11.30;99.90;;;11.92;100.00;98670.56;10306013;28;20227;-65
2024/02/17 03:09:06;;;;;;;11.15;10.15;;;11.30;99.90;;;11.93;100.00;98674.91;10298577;28;20238;-68
2024/02/17 03:14:11;;;;;;;8.82;8.07;;;11.30;99.90;;;11.88;100.00;98676.31;10302559;28;20527;-65
2024/02/17 03:19:14;;;;;;;7.50;6.80;;;11.30;99.90;;;11.82;100.00;98687.00;10302496;28;20255;-65
2024/02/17 03:24:17;;;;;;;6.57;5.97;;;11.30;99.90;;;11.85;100.00;98694.00;10301167;28;20983;-65
2024/02/17 03:29:22;;;;;;;6.90;6.35;;;11.30;99.90;;;11.84;100.00;98700.78;10304687;28;20227;-66
2024/02/17 03:34:25;;;;;;;6.03;5.60;;;11.20;99.90;;;11.83;100.00;98705.81;10303999;28;20227;-70
2024/02/17 03:39:28;;;;;;;5.25;4.75;;;11.20;99.90;;;11.76;100.00;98721.56;10302766;28;20719;-65
2024/02/17 03:44:33;;;;;;;5.70;5.00;;;11.10;99.90;;;11.75;100.00;98735.16;10304504;28;20265;-67
2024/02/17 03:49:36;;;;;;;4.47;4.18;;;11.10;99.90;;;11.69;100.00;98726.28;10300516;28;20260;-65
2024/02/17 03:54:42;;;;;;;5.35;4.95;;;11.10;99.90;;;11.67;100.00;98732.94;10304332;28;20226;-65
2024/02/17 03:59:46;;;;;;;4.45;4.05;;;11.10;99.90;;;11.67;100.00;98750.88;10308644;28;20313;-67
2024/02/17 04:04:50;;;;;;;5.13;4.72;;;11.10;99.90;;;11.67;100.00;98748.31;10311605;28;20227;-64
2024/02/17 04:09:53;;;;;;;4.82;4.43;;;11.10;99.90;;;11.65;100.00;98766.97;10307629;28;20238;-66
2024/02/17 04:14:58;;;;;;;6.03;5.47;;;11.10;99.90;;;11.63;100.00;98774.53;10311094;28;20326;-65
2024/02/17 04:20:01;;;;;;;6.55;5.95;;;11.00;99.90;;;11.60;100.00;98789.69;10309657;28;20229;-68
2024/02/17 04:25:06;;;;;;;7.13;6.20;;;11.00;99.90;;;11.60;100.00;98802.47;10314103;28;20235;-66
2024/02/17 04:30:12;;;;;;;7.03;6.32;;;10.90;99.90;;;11.51;100.00;98814.66;10307625;28;20231;-65
2024/02/17 04:35:15;;;;;;;6.88;6.22;;;10.90;99.90;;;11.43;100.00;98819.25;10311587;28;20789;-66
2024/02/17 04:40:18;;;;;;;6.00;5.50;;;10.80;99.90;;;11.41;100.00;98837.84;10306514;28;20719;-65
2024/02/17 04:45:23;;;;;;;6.38;5.07;;;10.80;99.90;;;11.31;100.00;98845.69;10305238;28;20246;-68
2024/02/17 04:50:26;;;;;;;6.13;4.88;;;10.60;99.90;;;11.18;100.00;98867.81;10304378;28;20219;-68
2024/02/17 04:55:30;;;;;;;5.30;4.80;;;10.50;99.90;;;11.15;100.00;98866.72;10308620;28;20445;-65
2024/02/17 05:00:35;;;;;;;5.82;4.90;;;10.50;99.90;;;11.17;100.00;98873.72;10301832;28;20238;-66
2024/02/17 05:05:38;;;;;;;5.80;5.30;;;10.50;99.90;;;11.15;100.00;98866.72;10307887;28;20231;-68
2024/02/17 05:10:42;;;;;;;6.13;5.53;;;10.50;99.90;;;11.07;100.00;98878.97;10302662;28;20723;-65
2024/02/17 05:15:46;;;;;;;6.40;5.45;;;10.50;99.90;;;11.09;100.00;98872.28;10302952;28;20242;-66
2024/02/17 05:20:49;;;;;;;6.50;5.75;;;10.50;99.90;;;11.11;100.00;98880.09;10304568;28;20238;-66
2024/02/17 05:25:54;;;;;;;6.60;5.90;;;10.50;99.90;;;11.08;100.00;98879.88;10301841;28;20240;-66
2024/02/17 05:30:59;;;;;;;9.10;7.03;;;10.50;99.90;;;11.03;100.00;98895.75;10304518;28;20250;-65
2024/02/17 05:36:02;;;;;;;7.97;7.18;;;10.40;99.90;;;11.03;100.00;98905.13;10305783;28;20818;-66
2024/02/17 05:41:05;;;;;;;8.57;7.65;;;10.40;99.90;;;11.02;100.00;98903.34;10300155;28;20231;-66
2024/02/17 05:46:11;;;;;;;11.10;9.10;;;10.40;99.90;;;10.99;100.00;98908.25;10306336;28;20226;-67
2024/02/17 05:51:14;;;;;;;9.10;8.00;;;10.40;99.90;;;11.01;100.00;98920.34;10301298;28;20235;-65
2024/02/17 05:56:17;;;;;;;10.95;9.45;;;10.40;99.90;;;10.96;100.00;98926.81;10302937;28;20244;-66
2024/02/17 06:01:22;;;;;;;14.10;12.02;;;10.40;99.90;;;10.98;100.00;98934.59;10304117;28;20223;-67
2024/02/17 06:06:26;;;;;;;17.85;13.90;;;10.30;99.90;;;10.98;100.00;98942.25;10302238;28;20314;-67
2024/02/17 06:11:30;;;;;;;17.92;13.73;;;10.30;99.90;;;10.97;100.00;98958.41;10301592;28;20562;-66
2024/02/17 06:16:34;;;;;;;22.83;16.98;;;10.30;99.90;;;10.95;100.00;98970.19;10305678;28;20649;-67
2024/02/17 06:21:38;;;;;;;21.50;16.55;;;10.30;99.90;;;10.91;100.00;98973.31;10305376;28;20707;-65
2024/02/17 06:26:41;;;;;;;32.15;20.17;;;10.30;99.90;;;10.92;100.00;98982.75;10302392;28;20350;-65
2024/02/17 06:31:46;;;;;;;30.20;20.70;;;10.30;99.90;;;10.97;100.00;98989.09;10319386;28;20542;-67
2024/02/17 06:36:49;;;;;;;29.48;20.95;;;10.30;99.90;;;11.03;100.00;99007.44;10313966;28;20237;-66
2024/02/17 06:41:53;;;;;;;28.70;20.55;;;10.40;99.90;;;10.98;100.00;99016.44;10314313;28;20231;-66
2024/02/17 06:46:58;;;;;;;34.13;23.80;;;10.30;99.90;;;10.98;100.00;99021.56;10309436;28;20235;-66
2024/02/17 06:52:01;;;;;;;35.13;24.52;;;10.30;99.90;;;10.94;100.00;99034.91;10317773;28;20610;-66
2024/02/17 06:57:05;;;;;;;32.40;23.73;;;10.30;99.90;;;10.95;100.00;99031.56;10308688;28;20774;-66
2024/02/17 07:02:09;;;;;;;33.95;24.58;;;10.30;99.90;;;11.03;100.00;99041.59;10307239;28;20731;-66
2024/02/17 07:07:13;;;;;;;30.20;22.15;;;10.30;99.90;;;10.95;100.00;99045.25;10308100;28;20600;-69
2024/02/17 07:12:16;;;;;;;31.98;22.50;;;10.30;99.90;;;10.93;100.00;99053.56;10308518;28;20238;-66
2024/02/17 07:17:20;;;;;;;35.72;22.95;;;10.30;99.90;;;10.89;100.00;99059.25;10311928;28;20879;-68
2024/02/17 07:22:23;;;;;;;31.30;22.38;;;10.30;99.90;;;10.92;100.00;99078.28;10311831;28;20721;-67
2024/02/17 07:27:27;;;;;;;35.25;24.50;;;10.30;99.90;;;10.97;100.00;99082.06;10308211;28;20227;-67
2024/02/17 07:32:32;;;;;;;31.38;22.20;;;10.30;99.90;;;11.00;100.00;99086.53;10307135;28;20227;-67
2024/02/17 07:37:35;;;;;;;30.02;21.60;;;10.30;99.90;;;11.03;100.00;99100.44;10306140;28;20231;-69
2024/02/17 07:42:38;;;;;;;38.65;26.65;;;10.40;99.90;;;11.05;100.00;99113.34;10306520;28;20254;-67
2024/02/17 07:47:43;;;;;;;39.05;28.23;;;10.40;99.90;;;11.14;100.00;99121.72;10305896;28;20261;-66
2024/02/17 07:52:46;;;;;;;33.65;24.58;;;10.50;99.90;;;11.24;100.00;99119.06;10304556;28;20262;-68
2024/02/17 07:57:49;;;;;;;34.60;24.40;;;10.60;99.90;;;11.45;100.00;99121.44;10305219;28;20405;-66
2024/02/17 08:02:54;;;;;;;34.33;23.13;;;10.70;99.90;;;11.65;100.00;99130.59;10306191;28;20608;-67
2024/02/17 08:07:57;;;;;;;30.98;22.77;;;10.90;99.90;;;12.05;100.00;99147.22;10302378;28;20731;-67
2024/02/17 08:13:00;;;;;;;29.75;23.45;;;11.30;99.90;;;12.38;100.00;99148.72;10300868;28;20322;-67
2024/02/17 08:18:06;;;;;;;28.95;22.00;;;11.70;99.90;;;12.54;100.00;99160.06;10303929;28;20231;-67
2024/02/17 08:23:09;;;;;;;26.80;20.15;;;11.80;99.90;;;12.93;100.00;99161.94;10308803;28;20219;-68
2024/02/17 08:28:13;;;;;;;23.45;19.08;;;12.30;99.90;;;13.40;100.00;99173.72;10305857;28;20238;-66
2024/02/17 08:33:17;;;;;;;17.13;15.32;;;12.80;99.90;;;13.16;100.00;99180.59;10309657;28;20242;-69
2024/02/17 08:38:21;;;;;;;18.73;14.95;;;12.60;99.90;;;12.65;100.00;99176.19;10307634;28;20239;-67
2024/02/17 08:43:24;;;;;;;18.42;15.00;;;12.00;99.90;;;12.55;100.00;99188.38;10307713;28;20238;-69
2024/02/17 08:48:28;;;;;;;18.25;16.10;;;12.00;99.90;;;12.68;100.00;99191.84;10306670;28;20367;-67
2024/02/17 08:53:32;;;;;;;15.80;14.00;;;12.20;99.90;;;12.80;100.00;99195.25;10308768;28;20686;-68
2024/02/17 08:58:35;;;;;;;15.82;14.23;;;12.20;99.90;;;12.48;100.00;99201.56;10307750;28;20231;-67
2024/02/17 09:03:43;;;;;;;17.10;14.90;;;11.90;99.90;;;12.68;100.00;99210.66;10307963;28;20245;-67
2024/02/17 09:08:46;;;;;;;20.58;17.25;;;12.10;99.90;;;13.00;100.00;99209.47;10305458;28;20231;-67
2024/02/17 09:13:50;;;;;;;18.02;16.10;;;12.40;99.90;;;13.37;100.00;99223.19;10308830;28;20238;-67
2024/02/17 09:18:55;;;;;;;15.63;13.82;;;12.80;99.90;;;13.59;100.00;99229.75;10308716;28;20669;-67
2024/02/17 09:23:58;;;;;;;16.25;14.52;;;13.20;99.90;;;14.02;100.00;99232.59;10306337;28;20226;-69
2024/02/17 09:29:02;;;;;;;16.77;14.98;;;13.60;99.90;;;14.24;100.00;99233.22;10303670;28;20232;-67
2024/02/17 09:34:06;;;;;;;16.70;14.95;;;13.80;99.90;;;14.17;100.00;99249.06;10306322;28;20230;-67
2024/02/17 09:39:09;;;;;;;14.45;12.95;;;13.50;99.90;;;13.93;97.89;99254.34;10305937;28;20254;-68
2024/02/17 09:44:12;;;;;;;16.02;14.32;;;13.10;99.90;;;13.76;100.00;99265.19;10307817;28;20231;-69
2024/02/17 09:49:17;;;;;;;16.70;14.77;;;12.90;99.90;;;13.76;100.00;99267.75;10306335;28;20232;-68
2024/02/17 09:54:22;;;;;;;18.65;15.07;;;12.80;99.90;;;13.73;100.00;99280.38;10309282;28;20290;-68
2024/02/17 09:59:25;;;;;;;24.40;15.25;;;12.80;99.90;;;13.58;99.51;99285.38;10312379;28;20297;-67
2024/02/17 10:04:30;;;;;;;15.15;13.52;;;12.70;99.90;;;13.56;100.00;99286.06;10312372;28;20231;-69
2024/02/17 10:09:35;;;;;;;15.85;13.38;;;12.60;99.90;;;13.38;100.00;99289.16;10304298;28;20635;-69
2024/02/17 10:14:39;;;;;;;16.58;13.85;;;12.50;99.90;;;13.38;100.00;99291.72;10303500;28;20234;-67
2024/02/17 10:19:44;;;;;;;15.60;14.00;;;12.50;99.90;;;13.43;100.00;99303.22;10303931;28;20233;-67
2024/02/17 10:24:48;;;;;;;16.30;14.52;;;12.50;99.90;;;13.44;99.30;99316.94;10300940;28;20231;-67
2024/02/17 10:29:51;;;;;;;14.88;13.35;;;12.60;99.90;;;13.48;100.00;99314.72;10304894;28;21652;-70
2024/02/17 10:34:55;;;;;;;16.65;14.88;;;12.60;99.90;;;13.31;99.02;99322.91;10304351;28;20222;-70
2024/02/17 10:40:00;;;;;;;16.55;14.10;;;12.40;99.90;;;13.11;100.00;99336.88;10301945;28;20369;-68
2024/02/17 10:45:06;;;;;;;19.98;17.88;;;12.30;99.90;;;12.74;98.67;99338.50;10308594;28;20715;-67
2024/02/17 10:50:14;;;;;;;18.73;16.45;;;12.00;99.90;;;12.93;100.00;99344.13;10308085;28;20289;-69
2024/02/17 10:55:25;;;;;;;19.30;15.77;;;12.00;99.90;;;13.02;100.00;99351.59;10311666;28;20310;-67
2024/02/17 11:00:32;;;;;;;16.27;14.50;;;12.10;99.90;;;13.36;99.11;99347.22;10306602;28;20305;-67
2024/02/17 11:05:41;;;;;;;15.75;14.07;;;12.50;99.90;;;13.49;95.76;99337.03;10310501;28;20227;-68
2024/02/17 11:10:44;;;;;;;14.68;13.00;;;12.70;99.90;;;13.82;93.48;99332.44;10309068;28;20231;-68
2024/02/17 11:16:01;;;;;;;12.77;11.48;;;13.10;99.90;;;14.05;91.44;99330.50;10314167;28;20235;-67
2024/02/17 11:21:07;;;;;;;12.13;10.93;;;13.40;99.90;;;14.33;88.65;99334.13;10313573;28;20608;-68
2024/02/17 11:26:16;;;;;;;12.20;11.10;;;13.70;99.90;;;14.60;84.08;99329.94;10312660;28;20310;-67
2024/02/17 11:31:35;;;;;;;10.98;9.90;;;14.00;99.90;;;14.75;82.93;99319.75;10313578;28;20709;-69
2024/02/17 11:36:40;;;;;;;10.93;9.60;;;14.10;99.90;;;14.82;77.14;99311.63;10318243;28;20711;-68
2024/02/17 11:41:44;;;;;;;10.40;9.40;;;14.20;99.90;;;14.95;77.89;99312.41;10310712;28;20298;-68
2024/02/17 11:46:48;;;;;;;10.88;9.48;;;14.30;99.90;;;15.22;78.06;99318.38;10314267;28;20764;-68
2024/02/17 11:51:53;;;;;;;9.75;8.88;;;14.50;99.90;;;15.13;76.47;99322.97;10306800;28;20288;-69
2024/02/17 11:56:57;;;;;;;10.10;9.20;;;14.30;99.90;;;15.06;76.28;99321.69;10312063;28;20231;-70
2024/02/17 12:02:00;;;;;;;10.38;9.38;;;14.40;99.90;;;15.24;74.87;99316.78;10316476;28;20249;-71
2024/02/17 12:07:04;;;;;;;11.23;10.23;;;14.60;99.90;;;15.35;75.02;99320.03;10315122;28;20230;-69
2024/02/17 12:12:08;;;;;;;10.70;9.80;;;14.70;99.90;;;15.39;73.11;99322.00;10313136;28;20238;-68
2024/02/17 12:17:12;;;;;;;10.27;9.27;;;14.70;99.90;;;15.30;73.89;99317.16;10310276;28;20262;-68
2024/02/17 12:22:17;;;;;;;9.35;8.00;;;14.50;99.90;;;15.06;72.40;99327.72;10317964;28;20227;-70
2024/02/17 12:27:21;;;;;;;10.15;9.10;;;14.50;99.90;;;15.22;72.75;99324.44;10315457;28;20386;-68
2024/02/17 12:32:24;;;;;;;8.93;8.02;;;14.40;99.90;;;15.47;71.30;99320.78;10320308;28;20231;-68
2024/02/17 12:37:28;;;;;;;6.90;6.20;;;14.80;99.90;;;15.46;70.13;99325.06;10320573;28;20261;-68
2024/02/17 12:42:31;;;;;;;5.80;5.30;;;14.70;99.90;;;15.44;67.30;99321.50;10319439;28;20541;-68
2024/02/17 12:47:35;;;;;;;6.22;5.63;;;14.60;99.90;;;15.70;67.51;99323.09;10316852;28;20227;-68
2024/02/17 12:52:40;;;;;;;5.63;5.15;;;14.90;99.90;;;15.80;64.69;99321.09;10319847;28;20306;-70
2024/02/17 12:57:44;;;;;;;6.30;5.80;;;15.00;99.90;;;15.75;64.33;99326.84;10312937;28;20239;-70
2024/02/17 13:02:47;;;;;;;6.57;5.97;;;15.20;99.90;;;15.57;64.59;99325.72;10310263;28;20230;-66
2024/02/17 13:07:52;;;;;;;6.10;5.50;;;15.00;99.90;;;15.23;66.86;99333.94;10314785;28;20706;-67
2024/02/17 13:12:55;;;;;;;5.57;5.07;;;14.40;99.90;;;14.83;65.68;99336.56;10310574;28;20234;-67
2024/02/17 13:17:59;;;;;;;5.47;5.00;;;14.00;99.90;;;14.45;67.62;99353.72;10313126;28;20239;-68
2024/02/17 13:23:05;;;;;;;5.82;5.32;;;13.60;99.90;;;14.00;68.99;99353.34;10315502;28;20215;-68
2024/02/17 13:28:08;;;;;;;6.15;5.57;;;13.20;99.90;;;13.92;71.89;99355.38;10318644;28;20237;-68
2024/02/17 13:33:11;;;;;;;6.53;5.72;;;13.10;99.90;;;13.86;73.09;99352.41;10315047;28;20242;-71
2024/02/17 13:38:16;;;;;;;5.68;5.07;;;13.00;99.90;;;13.70;71.05;99350.44;10314025;28;21697;-68
2024/02/17 13:43:32;;;;;;;5.25;4.75;;;13.00;99.90;;;13.69;68.59;99350.38;10310951;28;20238;-68
2024/02/17 13:48:35;;;;;;;4.40;4.10;;;13.00;99.90;;;13.86;71.06;99352.41;10313579;28;20223;-70
2024/02/17 13:53:41;;;;;;;4.90;4.30;;;13.10;99.90;;;13.89;69.05;99351.72;10311079;28;20223;-68
2024/02/17 13:58:45;;;;;;;4.72;4.32;;;13.20;99.90;;;14.04;69.43;99359.59;10307994;28;20242;-68
2024/02/17 14:03:48;;;;;;;4.50;4.10;;;13.20;99.90;;;14.02;69.22;99363.72;10309079;28;20683;-68
2024/02/17 14:08:53;;;;;;;4.65;4.25;;;13.20;99.90;;;14.12;69.39;99366.13;10310238;28;20293;-72
2024/02/17 14:14:00;;;;;;;6.00;5.38;;;13.30;99.90;;;13.92;68.55;99365.66;10314937;28;20234;-69
2024/02/17 14:19:04;;;;;;;6.00;5.55;;;13.20;99.90;;;13.90;69.33;99374.06;10305060;28;20215;-71
2024/02/17 14:24:08;;;;;;;5.93;5.40;;;13.10;99.90;;;13.83;69.20;99362.47;10299391;28;20234;-69
2024/02/17 14:29:12;;;;;;;5.45;5.00;;;13.10;99.90;;;13.89;71.48;99375.75;10306475;28;20711;-67
2024/02/17 14:34:15;;;;;;;5.82;5.35;;;13.20;99.90;;;13.88;71.19;99373.97;10314172;28;20531;-67
2024/02/17 14:39:19;;;;;;;6.45;5.85;;;13.20;99.90;;;13.84;68.96;99376.22;10310969;28;20227;-70
2024/02/17 14:44:23;;;;;;;5.75;5.25;;;13.10;99.90;;;13.88;72.20;99379.13;10311812;28;20235;-69
2024/02/17 14:49:26;;;;;;;6.22;5.63;;;13.10;99.90;;;13.87;69.93;99382.44;10310697;28;20231;-68
2024/02/17 14:54:30;;;;;;;7.55;6.78;;;13.10;99.90;;;13.81;69.48;99384.59;10316176;28;20231;-68
2024/02/17 14:59:33;;;;;;;6.32;5.70;;;13.00;99.90;;;13.76;70.44;99403.94;10312510;28;20726;-70
2024/02/17 15:04:36;;;;;;;8.30;5.53;;;13.00;99.90;;;13.70;70.92;99395.81;10315322;28;20230;-69
2024/02/17 15:09:41;;;;;;;6.20;5.18;;;13.00;99.90;;;13.57;71.71;99404.38;10312937;28;20234;-67
2024/02/17 15:14:44;;;;;;;6.10;5.57;;;12.80;99.90;;;13.54;73.80;99414.44;10312498;28;20314;-69
2024/02/17 15:19:47;;;;;;;7.40;6.80;;;12.80;99.90;;;13.52;75.45;99416.00;10313417;28;20230;-68
2024/02/17 15:24:52;;;;;;;8.18;7.40;;;12.80;99.90;;;13.45;75.96;99418.91;10311958;28;20242;-69
2024/02/17 15:29:56;;;;;;;7.18;6.20;;;12.70;99.90;;;13.39;75.97;99428.72;10316727;28;20223;-67
2024/02/17 15:34:59;;;;;;;7.43;6.72;;;12.60;99.90;;;13.29;75.23;99424.63;10318501;28;20710;-70
2024/02/17 15:40:05;;;;;;;6.72;6.07;;;12.60;99.90;;;13.31;76.33;99428.22;10317858;28;20227;-71
2024/02/17 15:45:09;;;;;;;7.47;6.78;;;12.50;99.90;;;13.26;78.21;99430.44;10328314;28;20238;-68
2024/02/17 15:50:13;;;;;;;8.63;7.82;;;12.60;99.90;;;13.22;77.71;99437.75;10323036;28;20227;-68
2024/02/17 15:55:18;;;;;;;7.75;6.95;;;12.50;99.90;;;13.11;76.73;99444.72;10333984;28;20235;-69
2024/02/17 16:00:22;;;;;;;6.15;5.65;;;12.30;99.90;;;13.01;77.83;99444.81;10333567;28;20222;-69
2024/02/17 16:05:26;;;;;;;6.97;6.38;;;12.30;99.90;;;13.04;81.04;99448.47;10328710;28;20226;-68
2024/02/17 16:10:30;;;;;;;6.95;6.32;;;12.30;99.90;;;13.01;81.42;99458.53;10323966;28;20234;-67
2024/02/17 16:15:34;;;;;;;6.38;5.57;;;12.20;99.90;;;12.92;81.61;99457.84;10328857;28;20227;-66
2024/02/17 16:20:38;;;;;;;6.57;5.82;;;12.20;99.90;;;12.87;81.27;99456.63;10322997;28;20225;-69
2024/02/17 16:25:43;;;;;;;5.72;5.20;;;12.20;99.90;;;12.89;80.55;99452.50;10318593;28;20266;-69
2024/02/17 16:30:49;;;;;;;4.97;4.57;;;12.20;99.90;;;12.88;82.08;99452.38;10319527;28;20241;-68
2024/02/17 16:35:52;;;;;;;5.50;5.00;;;12.10;99.90;;;12.76;80.96;99465.19;10320932;28;20245;-68
2024/02/17 16:40:57;;;;;;;6.43;5.82;;;12.10;99.90;;;12.67;83.42;99470.53;10319568;28;20226;-67
2024/02/17 16:46:00;;;;;;;6.15;5.55;;;11.90;99.90;;;12.52;85.12;99472.84;10321894;28;20239;-68
2024/02/17 16:51:04;;;;;;;6.43;5.80;;;11.80;99.90;;;12.36;85.63;99472.47;10319072;28;20257;-68
2024/02/17 16:56:09;;;;;;;6.10;5.53;;;11.60;99.90;;;12.16;86.31;99468.38;10318009;28;20238;-69
2024/02/17 17:01:12;;;;;;;8.38;7.68;;;11.40;99.90;;;11.90;87.13;99466.38;10315607;28;20611;-67
2024/02/17 17:06:15;;;;;;;7.95;7.35;;;11.10;99.90;;;11.80;89.31;99471.53;10310221;28;20734;-67
2024/02/17 17:11:23;;;;;;;6.50;5.90;;;11.00;99.90;;;11.60;90.79;99478.53;10310120;28;20707;-67
2024/02/17 17:16:26;;;;;;;5.22;4.72;;;10.80;99.90;;;11.34;92.59;99496.94;10312318;28;20242;-68
2024/02/17 17:21:29;;;;;;;6.03;5.45;;;10.50;99.90;;;11.02;93.72;99499.47;10321640;28;20276;-67
2024/02/17 17:26:34;;;;;;;7.22;6.63;;;10.20;99.90;;;10.96;95.66;99499.84;10312139;28;20237;-67
2024/02/17 17:31:52;;;;;;;7.53;6.82;;;10.20;99.90;;;10.75;95.09;99504.06;10312178;28;20250;-69
2024/02/17 17:36:55;;;;;;;11.77;9.40;;;9.90;99.90;;;10.64;95.70;99503.94;10310941;28;20235;-67
2024/02/17 17:42:00;;;;;;;12.20;11.00;;;9.90;99.90;;;10.49;96.34;99498.47;10312939;28;20729;-68
2024/02/17 17:47:04;;;;;;;7.65;6.85;;;9.70;99.90;;;10.36;97.13;99502.56;10310610;28;20231;-68
2024/02/17 17:52:08;;;;;;;8.80;7.90;;;9.60;99.90;;;10.21;99.13;99510.53;10304847;28;20219;-68
2024/02/17 17:57:13;;;;;;;7.20;6.60;;;9.50;99.90;;;10.12;98.81;99526.88;10302242;28;20698;-69
2024/02/17 18:02:16;;;;;;;6.82;6.22;;;9.40;99.90;;;10.06;100.00;99522.91;10302913;28;20233;-68
2024/02/17 18:07:20;;;;;;;6.07;5.43;;;9.30;99.90;;;9.86;100.00;99531.41;10300230;28;20235;-68
2024/02/17 18:12:24;;;;;;;6.72;6.13;;;9.10;99.90;;;9.76;100.00;99549.22;10285711;28;20674;-70
2024/02/17 18:17:28;;;;;;;7.68;6.97;;;9.00;99.90;;;9.68;100.00;99551.13;10292314;28;20629;-69
2024/02/17 18:22:33;;;;;;;8.15;7.28;;;8.90;99.90;;;9.47;100.00;99551.03;10307244;28;20233;-69
2024/02/17 18:27:38;;;;;;;8.63;7.82;;;8.70;99.90;;;9.29;100.00;99562.13;10303082;28;20238;-68
2024/02/17 18:32:41;;;;;;;9.75;8.75;;;8.50;99.90;;;9.16;100.00;99572.00;10289130;28;20828;-69
2024/02/17 18:37:44;;;;;;;6.80;6.10;;;8.40;99.90;;;8.97;100.00;99574.53;10304014;28;20243;-68
2024/02/17 18:42:49;;;;;;;7.50;6.90;;;8.20;99.90;;;8.93;100.00;99578.47;10296774;28;20723;-68
2024/02/17 18:47:54;;;;;;;6.82;6.32;;;8.30;99.90;;;8.67;100.00;99576.09;10292789;28;20230;-70
2024/02/17 18:52:58;;;;;;;6.95;6.30;;;8.00;99.90;;;8.70;100.00;99580.53;10306238;28;20246;-69
2024/02/17 18:58:02;;;;;;;6.85;6.35;;;8.00;99.90;;;8.69;100.00;99574.56;10294017;28;20223;-67
2024/02/17 19:03:05;;;;;;;7.82;7.13;;;8.00;99.90;;;8.66;100.00;99596.31;10306107;28;20226;-68
2024/02/17 19:08:09;;;;;;;7.90;7.07;;;7.90;99.90;;;8.61;100.00;99588.25;10299142;28;20603;-67
2024/02/17 19:13:13;;;;;;;7.55;6.95;;;7.90;99.90;;;8.50;100.00;99591.47;10302860;28;20234;-68
2024/02/17 19:18:16;;;;;;;7.85;6.90;;;7.70;99.90;;;8.45;100.00;99601.22;10301012;28;20246;-69
2024/02/17 19:23:20;;;;;;;7.50;6.82;;;7.70;99.90;;;8.42;100.00;99612.78;10300790;28;20703;-68
2024/02/17 19:28:24;;;;;;;9.20;8.30;;;7.70;99.90;;;8.52;100.00;99610.34;10294933;28;20739;-69
2024/02/17 19:33:27;;;;;;;8.97;8.17;;;7.70;99.90;;;8.44;100.00;99612.19;10297688;28;20619;-68
2024/02/17 19:38:31;;;;;;;9.30;8.47;;;7.70;99.90;;;8.51;100.00;99614.53;10298258;28;20278;-68
2024/02/17 19:43:35;;;;;;;9.40;8.53;;;7.70;99.90;;;8.30;100.00;99617.59;10295353;28;20222;-68
2024/02/17 19:48:38;;;;;;;9.23;8.00;;;7.60;99.90;;;8.30;100.00;99607.41;10294386;28;20223;-68
2024/02/17 19:53:42;;;;;;;9.93;9.00;;;7.60;99.90;;;8.29;100.00;99600.50;10297608;28;20337;-68
2024/02/17 19:58:48;;;;;;;11.37;10.03;;;7.60;99.90;;;8.31;100.00;99596.47;10297051;28;20234;-68
2024/02/17 20:03:53;;;;;;;11.20;10.13;;;7.50;99.90;;;8.25;100.00;99600.97;10294783;28;20249;-69
2024/02/17 20:08:59;;;;;;;10.10;9.20;;;7.50;99.90;;;8.26;100.00;99607.88;10294062;28;20329;-68
2024/02/17 20:14:08;;;;;;;9.87;8.87;;;7.50;99.90;;;8.28;100.00;99601.28;10296723;28;20603;-68
2024/02/17 20:19:11;;;;;;;8.18;7.47;;;7.50;99.90;;;8.33;100.00;99605.16;10293758;28;20222;-68
2024/02/17 20:24:15;;;;;;;9.70;8.70;;;7.50;99.90;;;8.10;100.00;99608.06;10296764;28;20687;-69
2024/02/17 20:29:19;;;;;;;10.20;9.20;;;7.30;99.90;;;8.08;100.00;99600.28;10294883;28;20231;-68
2024/02/17 20:34:23;;;;;;;8.63;7.90;;;7.40;99.90;;;8.08;100.00;99613.00;10291410;28;20253;-69
2024/02/17 20:39:26;;;;;;;8.50;7.70;;;7.40;99.90;;;8.07;100.00;99618.88;10298893;28;20222;-68
2024/02/17 20:44:31;;;;;;;9.27;8.37;;;7.40;99.90;;;8.02;100.00;99627.72;10301841;28;20996;-69
2024/02/17 20:49:34;;;;;;;10.77;9.77;;;7.30;99.90;;;8.11;100.00;99623.50;10300108;28;20234;-69